createdAt,value
2019-04-27T00:05:30.043Z,99.90
2019-04-27T00:08:02.829Z,99.90
2019-04-27T00:10:33.463Z,99.90
2019-04-27T00:13:05.597Z,99.90
2019-04-27T00:15:36.687Z,99.90
2019-04-27T00:18:13.129Z,99.90
2019-04-27T00:20:41.108Z,99.90
2019-04-27T00:23:11.191Z,99.90
2019-04-27T00:25:39.647Z,99.90
2019-04-27T00:28:08.350Z,99.90
2019-04-27T00:30:36.810Z,99.90
2019-04-27T00:33:05.508Z,99.90
2019-04-27T00:35:35.991Z,99.90
2019-04-27T00:38:06.096Z,99.90
2019-04-27T00:40:55.502Z,99.90
2019-04-27T00:43:23.925Z,99.90
2019-04-27T00:45:53.734Z,99.90
2019-04-27T00:48:23.370Z,99.90
2019-04-27T00:50:52.881Z,99.90
2019-04-27T00:53:21.461Z,99.90
2019-04-27T00:55:57.285Z,99.90
2019-04-27T00:58:30.112Z,99.90
2019-04-27T01:01:09.211Z,99.90
2019-04-27T01:03:39.275Z,99.90
2019-04-27T01:06:07.788Z,99.90
2019-04-27T01:08:36.211Z,99.90
2019-04-27T01:11:05.092Z,99.90
2019-04-27T01:13:35.038Z,99.90
2019-04-27T01:16:03.679Z,99.90
2019-04-27T01:18:32.156Z,99.90
2019-04-27T01:21:00.668Z,99.90
2019-04-27T01:23:29.428Z,99.90
2019-04-27T01:25:59.749Z,99.90
2019-04-27T01:28:39.176Z,99.90
2019-04-27T01:33:46.120Z,99.90
2019-04-27T01:36:14.559Z,99.90
2019-04-27T01:39:02.323Z,99.90
2019-04-27T01:41:30.758Z,99.90
2019-04-27T01:43:59.235Z,99.90
2019-04-27T01:46:29.434Z,99.90
2019-04-27T01:48:59.086Z,99.90
2019-04-27T01:51:29.472Z,99.90
2019-04-27T01:53:59.373Z,99.90
2019-04-27T01:56:29.410Z,99.90
2019-04-27T01:58:59.408Z,99.90
2019-04-27T02:01:38.971Z,99.90
2019-04-27T02:04:14.992Z,99.90
2019-04-27T02:06:45.263Z,99.90
2019-04-27T02:09:16.687Z,99.90
2019-04-27T02:11:45.120Z,99.90
2019-04-27T02:14:13.619Z,99.90
2019-04-27T02:16:42.048Z,99.90
2019-04-27T02:19:11.325Z,99.90
2019-04-27T02:21:40.299Z,99.90
2019-04-27T02:24:09.711Z,99.90
2019-04-27T02:26:39.887Z,99.90
2019-04-27T02:29:19.296Z,99.90
2019-04-27T02:31:55.196Z,99.90
2019-04-27T02:34:25.268Z,99.90
2019-04-27T02:36:53.973Z,99.90
2019-04-27T02:39:22.603Z,99.90
2019-04-27T02:41:51.956Z,99.90
2019-04-27T02:44:22.245Z,99.90
2019-04-27T02:46:50.685Z,99.90
2019-04-27T02:49:20.165Z,99.90
2019-04-27T02:51:50.527Z,99.90
2019-04-27T02:54:20.417Z,99.90
2019-04-27T02:56:50.058Z,99.90
2019-04-27T02:59:19.833Z,99.90
2019-04-27T03:01:53.225Z,99.90
2019-04-27T03:04:20.483Z,99.90
2019-04-27T03:06:50.112Z,99.90
2019-04-27T03:09:20.496Z,99.90
2019-04-27T03:11:49.990Z,99.90
2019-04-27T03:14:32.638Z,99.90
2019-04-27T03:17:22.833Z,99.90
2019-04-27T03:19:54.468Z,99.90
2019-04-27T03:22:29.377Z,99.90
2019-04-27T03:25:00.014Z,99.90
2019-04-27T03:27:54.779Z,99.90
2019-04-27T03:30:23.861Z,99.90
2019-04-27T03:32:56.599Z,99.90
2019-04-27T03:35:23.350Z,99.90
2019-04-27T03:37:51.890Z,99.90
2019-04-27T03:40:20.618Z,99.90
2019-04-27T03:42:50.820Z,99.90
2019-04-27T03:45:20.145Z,99.90
2019-04-27T03:47:50.496Z,99.90
2019-04-27T03:50:20.692Z,99.90
2019-04-27T03:53:06.161Z,99.90
2019-04-27T03:55:54.536Z,99.90
2019-04-27T03:58:42.794Z,99.90
2019-04-27T04:01:11.250Z,99.90
2019-04-27T04:03:39.680Z,99.90
2019-04-27T04:06:10.491Z,99.90
2019-04-27T04:08:39.662Z,99.90
2019-04-27T04:11:30.348Z,99.90
2019-04-27T04:14:03.037Z,99.90
2019-04-27T04:16:35.920Z,99.90
2019-04-27T04:19:06.349Z,99.90
2019-04-27T04:21:34.811Z,99.90
2019-04-27T04:24:03.258Z,99.90
2019-04-27T04:26:33.054Z,99.90
2019-04-27T04:29:01.793Z,99.90
2019-04-27T04:31:33.097Z,99.90
2019-04-27T04:34:00.520Z,99.90
2019-04-27T04:36:30.096Z,99.90
2019-04-27T04:39:00.443Z,99.90
2019-04-27T04:41:50.948Z,99.90
2019-04-27T04:44:21.063Z,99.90
2019-04-27T04:46:51.149Z,99.90
2019-04-27T04:49:19.633Z,99.90
2019-04-27T04:51:50.185Z,99.90
2019-04-27T04:54:19.824Z,99.90
2019-04-27T04:56:49.373Z,99.90
2019-04-27T04:59:20.043Z,99.90
2019-04-27T05:01:49.962Z,99.90
2019-04-27T05:04:19.348Z,99.90
2019-04-27T05:06:49.182Z,99.90
2019-04-27T05:09:19.390Z,99.90
2019-04-27T05:11:48.654Z,99.90
2019-04-27T05:14:17.405Z,99.90
2019-04-27T05:16:45.903Z,99.90
2019-04-27T05:19:14.388Z,99.90
2019-04-27T05:21:42.897Z,99.90
2019-04-27T05:24:11.396Z,99.90
2019-04-27T05:26:39.941Z,99.90
2019-04-27T05:29:09.096Z,99.90
2019-04-27T05:31:38.811Z,99.90
2019-04-27T05:34:09.325Z,99.90
2019-04-27T05:36:41.576Z,99.90
2019-04-27T05:39:09.605Z,99.90
2019-04-27T05:41:41.215Z,99.90
2019-04-27T05:44:12.755Z,99.90
2019-04-27T05:46:41.733Z,99.90
2019-04-27T05:49:13.443Z,99.90
2019-04-27T05:51:43.166Z,99.90
2019-04-27T05:54:11.617Z,99.90
2019-04-27T05:56:40.264Z,99.90
2019-04-27T05:59:09.189Z,99.90
2019-04-27T06:01:38.945Z,99.90
2019-04-27T06:04:09.017Z,99.90
2019-04-27T06:06:39.707Z,99.90
2019-04-27T06:09:09.512Z,99.90
2019-04-27T06:11:39.836Z,99.90
2019-04-27T06:14:09.706Z,99.90
2019-04-27T06:16:39.330Z,99.90
2019-04-27T06:19:09.632Z,99.90
2019-04-27T06:21:39.914Z,99.90
2019-04-27T06:24:08.836Z,99.90
2019-04-27T06:26:39.773Z,99.90
2019-04-27T06:29:09.482Z,99.90
2019-04-27T06:31:39.673Z,99.90
2019-04-27T06:34:09.799Z,99.90
2019-04-27T06:36:38.813Z,99.90
2019-04-27T06:39:09.622Z,99.90
2019-04-27T06:41:39.775Z,99.90
2019-04-27T06:44:09.374Z,99.90
2019-04-27T06:46:38.578Z,99.90
2019-04-27T06:49:09.040Z,99.90
2019-04-27T06:51:40.047Z,99.90
2019-04-27T06:54:09.304Z,99.90
2019-04-27T06:56:38.929Z,99.90
2019-04-27T06:59:08.756Z,99.90
2019-04-27T07:01:38.934Z,99.90
2019-04-27T07:04:10.578Z,99.90
2019-04-27T07:06:51.088Z,99.90
2019-04-27T07:09:09.670Z,99.90
2019-04-27T07:11:39.951Z,99.90
2019-04-27T07:14:11.628Z,99.90
2019-04-27T07:16:40.457Z,99.60
2019-04-27T07:19:09.478Z,99.50
2019-04-27T07:21:39.716Z,99.40
2019-04-27T07:24:08.985Z,99.60
2019-04-27T07:26:39.054Z,99.60
2019-04-27T07:29:09.627Z,99.40
2019-04-27T07:31:40.235Z,99.00
2019-04-27T07:34:09.394Z,99.00
2019-04-27T07:36:39.246Z,99.00
2019-04-27T07:39:11.242Z,99.10
2019-04-27T07:41:42.046Z,99.10
2019-04-27T07:44:12.272Z,98.80
2019-04-27T07:46:40.739Z,98.90
2019-04-27T07:49:09.399Z,98.90
2019-04-27T07:51:39.331Z,98.30
2019-04-27T07:54:08.990Z,98.10
2019-04-27T07:56:38.999Z,97.60
2019-04-27T07:59:09.080Z,97.50
2019-04-27T08:01:39.274Z,97.40
2019-04-27T08:04:09.075Z,97.80
2019-04-27T08:06:38.795Z,97.30
2019-04-27T08:09:09.230Z,97.10
2019-04-27T08:11:39.107Z,96.80
2019-04-27T08:14:08.698Z,96.90
2019-04-27T08:16:38.820Z,97.00
2019-04-27T08:19:07.412Z,96.90
2019-04-27T08:21:43.459Z,96.80
2019-04-27T08:24:06.100Z,97.00
2019-04-27T08:26:39.509Z,96.80
2019-04-27T08:29:25.885Z,96.40
2019-04-27T08:32:11.060Z,96.50
2019-04-27T08:34:39.813Z,96.50
2019-04-27T08:37:09.177Z,96.20
2019-04-27T08:39:39.523Z,96.20
2019-04-27T08:42:09.568Z,95.90
2019-04-27T08:44:39.734Z,96.00
2019-04-27T08:47:09.549Z,96.10
2019-04-27T08:49:39.404Z,95.50
2019-04-27T08:52:09.368Z,95.30
2019-04-27T08:54:39.412Z,95.00
2019-04-27T08:57:09.669Z,95.40
2019-04-27T08:59:39.292Z,95.60
2019-04-27T09:02:08.749Z,95.20
2019-04-27T09:04:39.281Z,94.90
2019-04-27T09:07:25.425Z,95.40
2019-04-27T09:09:55.509Z,95.30
2019-04-27T09:12:43.821Z,95.40
2019-04-27T09:15:30.354Z,95.30
2019-04-27T09:17:59.816Z,94.60
2019-04-27T09:20:49.101Z,94.60
2019-04-27T09:23:18.792Z,94.60
2019-04-27T09:25:47.387Z,94.10
2019-04-27T09:28:15.883Z,93.30
2019-04-27T09:30:44.478Z,92.60
2019-04-27T09:33:12.959Z,91.80
2019-04-27T09:35:41.457Z,91.40
2019-04-27T09:38:11.038Z,90.90
2019-04-27T09:40:50.122Z,91.00
2019-04-27T09:43:19.979Z,90.80
2019-04-27T09:45:48.476Z,90.60
2019-04-27T09:48:17.664Z,90.60
2019-04-27T09:50:46.653Z,90.90
2019-04-27T09:53:15.808Z,90.80
2019-04-27T09:55:44.499Z,90.40
2019-04-27T09:58:12.967Z,90.60
2019-04-27T10:00:41.410Z,90.10
2019-04-27T10:03:09.860Z,89.80
2019-04-27T10:05:38.300Z,87.90
2019-04-27T10:08:06.758Z,86.40
2019-04-27T10:10:36.973Z,86.40
2019-04-27T10:13:06.979Z,87.10
2019-04-27T10:15:35.724Z,85.70
2019-04-27T10:18:05.933Z,85.10
2019-04-27T10:20:38.711Z,84.40
2019-04-27T10:23:06.277Z,82.10
2019-04-27T10:25:35.499Z,82.60
2019-04-27T10:28:06.804Z,84.70
2019-04-27T10:30:35.921Z,84.90
2019-04-27T10:33:07.759Z,84.00
2019-04-27T10:35:36.308Z,80.70
2019-04-27T10:38:05.087Z,82.90
2019-04-27T10:40:33.538Z,81.40
2019-04-27T10:43:02.031Z,82.90
2019-04-27T10:45:30.520Z,80.80
2019-04-27T10:47:58.961Z,79.70
2019-04-27T10:50:46.832Z,80.00
2019-04-27T10:53:16.824Z,79.20
2019-04-27T10:55:46.433Z,78.50
2019-04-27T10:58:15.193Z,77.00
2019-04-27T11:00:45.620Z,76.50
2019-04-27T11:03:16.618Z,72.40
2019-04-27T11:05:46.840Z,73.90
2019-04-27T11:08:16.718Z,74.80
2019-04-27T11:10:46.185Z,73.40
2019-04-27T11:13:16.432Z,71.60
2019-04-27T11:15:46.115Z,72.10
2019-04-27T11:18:16.561Z,72.20
2019-04-27T11:20:46.332Z,73.10
2019-04-27T11:23:16.352Z,77.70
2019-04-27T11:25:46.667Z,84.50
2019-04-27T11:28:15.710Z,87.40
2019-04-27T11:30:44.379Z,89.00
2019-04-27T11:33:12.822Z,89.40
2019-04-27T11:35:46.972Z,89.90
2019-04-27T11:38:16.763Z,89.20
2019-04-27T11:40:46.645Z,90.20
2019-04-27T11:43:16.060Z,89.90
2019-04-27T11:45:45.727Z,89.40
2019-04-27T11:48:16.029Z,88.00
2019-04-27T11:50:45.851Z,86.50
2019-04-27T11:53:22.814Z,85.70
2019-04-27T11:55:45.190Z,86.00
2019-04-27T11:58:13.623Z,81.00
2019-04-27T12:00:42.119Z,78.00
2019-04-27T12:03:10.587Z,74.50
2019-04-27T12:05:39.062Z,74.20
2019-04-27T12:08:07.515Z,74.70
2019-04-27T12:10:36.394Z,73.50
2019-04-27T12:13:05.455Z,66.90
2019-04-27T12:15:36.221Z,67.40
2019-04-27T12:18:08.855Z,61.40
2019-04-27T12:20:35.904Z,54.60
2019-04-27T12:23:06.359Z,46.90
2019-04-27T12:25:37.093Z,45.40
2019-04-27T12:28:12.404Z,42.70
2019-04-27T12:30:48.468Z,37.30
2019-04-27T12:33:16.915Z,34.80
2019-04-27T12:35:46.227Z,33.30
2019-04-27T12:38:15.505Z,32.30
2019-04-27T12:40:43.988Z,32.30
2019-04-27T12:43:12.430Z,27.90
2019-04-27T12:45:43.591Z,28.90
2019-04-27T12:48:11.272Z,28.00
2019-04-27T12:50:40.152Z,27.70
2019-04-27T12:53:12.650Z,26.80
2019-04-27T12:55:56.440Z,25.50
2019-04-27T12:58:32.880Z,26.90
2019-04-27T13:01:07.454Z,27.70
2019-04-27T13:03:36.436Z,28.40
2019-04-27T13:06:04.892Z,27.50
2019-04-27T13:08:33.431Z,27.70
2019-04-27T13:11:01.876Z,27.00
2019-04-27T13:13:30.311Z,28.20
2019-04-27T13:15:58.754Z,29.50
2019-04-27T13:18:27.196Z,29.30
2019-04-27T13:20:55.627Z,29.70
2019-04-27T13:23:24.058Z,31.60
2019-04-27T13:25:52.487Z,33.90
2019-04-27T13:28:20.916Z,35.40
2019-04-27T13:30:49.394Z,34.30
2019-04-27T13:33:17.799Z,32.30
2019-04-27T13:35:46.241Z,29.90
2019-04-27T13:38:17.801Z,26.80
2019-04-27T13:40:46.464Z,26.90
2019-04-27T13:43:16.749Z,27.50
2019-04-27T13:45:52.931Z,27.50
2019-04-27T13:48:38.215Z,27.30
2019-04-27T13:51:08.284Z,27.20
2019-04-27T13:53:36.895Z,26.80
2019-04-27T13:56:17.575Z,27.30
2019-04-27T13:58:46.078Z,29.70
2019-04-27T14:01:14.531Z,35.10
2019-04-27T14:03:45.013Z,38.20
2019-04-27T14:06:13.229Z,39.60
2019-04-27T14:08:41.655Z,40.40
2019-04-27T14:11:10.079Z,42.50
2019-04-27T14:13:39.120Z,43.50
2019-04-27T14:16:08.681Z,42.90
2019-04-27T14:18:38.472Z,43.50
2019-04-27T14:21:07.055Z,42.20
2019-04-27T14:23:35.495Z,43.60
2019-04-27T14:26:03.925Z,44.30
2019-04-27T14:28:32.355Z,43.80
2019-04-27T14:31:00.779Z,43.20
2019-04-27T14:33:29.215Z,45.00
2019-04-27T14:35:59.454Z,46.00
2019-04-27T14:38:27.812Z,46.60
2019-04-27T14:40:56.263Z,47.80
2019-04-27T14:43:24.703Z,46.90
2019-04-27T14:45:53.136Z,48.60
2019-04-27T14:48:21.575Z,49.80
2019-04-27T14:50:50.007Z,50.40
2019-04-27T14:53:18.447Z,51.40
2019-04-27T14:55:48.767Z,51.70
2019-04-27T14:58:19.111Z,50.40
2019-04-27T15:00:47.488Z,51.20
2019-04-27T15:03:15.923Z,51.90
2019-04-27T15:05:44.433Z,52.00
2019-04-27T15:08:13.993Z,52.60
2019-04-27T15:10:42.718Z,53.70
2019-04-27T15:13:11.151Z,55.10
2019-04-27T15:15:39.643Z,56.20
2019-04-27T15:18:09.611Z,56.90
2019-04-27T15:20:41.719Z,57.20
2019-04-27T15:23:10.190Z,57.10
2019-04-27T15:25:45.103Z,57.70
2019-04-27T15:28:12.153Z,58.30
2019-04-27T15:30:48.521Z,59.70
2019-04-27T15:33:21.508Z,59.80
2019-04-27T15:35:51.585Z,60.00
2019-04-27T15:38:28.781Z,60.00
2019-04-27T15:41:14.344Z,60.10
2019-04-27T15:43:44.494Z,61.00
2019-04-27T15:46:12.937Z,61.20
2019-04-27T15:48:41.444Z,62.20
2019-04-27T15:51:17.524Z,62.50
2019-04-27T15:53:41.578Z,59.00
2019-04-27T15:56:10.187Z,57.80
2019-04-27T15:58:38.624Z,55.00
2019-04-27T16:01:11.260Z,51.50
2019-04-27T16:03:39.034Z,49.40
2019-04-27T16:06:11.695Z,46.60
2019-04-27T16:08:44.824Z,45.50
2019-04-27T16:11:11.719Z,46.10
2019-04-27T16:13:38.370Z,45.50
2019-04-27T16:16:08.462Z,48.20
2019-04-27T16:18:38.701Z,48.70
2019-04-27T16:21:10.595Z,50.10
2019-04-27T16:23:42.876Z,50.40
2019-04-27T16:26:10.966Z,50.90
2019-04-27T16:28:38.601Z,51.90
2019-04-27T16:31:07.036Z,51.90
2019-04-27T16:33:35.479Z,52.90
2019-04-27T16:36:06.887Z,54.10
2019-04-27T16:38:51.940Z,53.90
2019-04-27T16:41:21.105Z,54.40
2019-04-27T16:43:49.626Z,56.30
2019-04-27T16:46:21.062Z,57.30
2019-04-27T16:48:48.264Z,57.80
2019-04-27T16:51:18.314Z,58.10
2019-04-27T16:56:40.506Z,58.00
2019-04-27T16:59:33.808Z,57.40
2019-04-27T17:01:41.040Z,58.20
2019-04-27T17:04:11.273Z,58.30
2019-04-27T17:06:45.971Z,58.30
2019-04-27T17:09:11.662Z,59.00
2019-04-27T17:11:43.833Z,59.50
2019-04-27T17:14:22.372Z,59.70
2019-04-27T17:17:03.725Z,61.00
2019-04-27T17:19:39.991Z,61.30
2019-04-27T17:22:05.776Z,61.60
2019-04-27T17:27:33.298Z,62.70
2019-04-27T17:30:02.396Z,63.40
2019-04-27T17:32:44.497Z,64.30
2019-04-27T17:35:14.834Z,65.00
2019-04-27T17:37:43.096Z,66.10
2019-04-27T17:40:15.270Z,66.70
2019-04-27T17:43:06.963Z,68.00
2019-04-27T17:45:36.030Z,69.50
2019-04-27T17:48:06.924Z,70.70
2019-04-27T17:50:30.865Z,71.90
2019-04-27T17:52:59.351Z,72.20
2019-04-27T17:55:27.977Z,73.50
2019-04-27T17:58:00.513Z,74.20
2019-04-27T18:00:28.112Z,74.80
2019-04-27T18:02:57.983Z,74.30
2019-04-27T18:05:28.400Z,71.60
2019-04-27T18:07:57.973Z,69.40
2019-04-27T18:10:28.186Z,69.40
2019-04-27T18:12:58.291Z,71.60
2019-04-27T18:15:26.881Z,69.30
2019-04-27T18:17:58.464Z,72.90
2019-04-27T18:20:28.913Z,78.30
2019-04-27T18:23:15.005Z,80.90
2019-04-27T18:25:43.629Z,83.40
2019-04-27T18:31:05.864Z,85.70
2019-04-27T18:33:53.707Z,87.30
2019-04-27T18:36:22.408Z,90.00
2019-04-27T18:38:50.839Z,90.90
2019-04-27T18:41:19.267Z,91.60
2019-04-27T18:43:52.163Z,92.20
2019-04-27T18:46:21.559Z,92.40
2019-04-27T18:48:53.864Z,92.90
2019-04-27T18:51:33.611Z,93.60
2019-04-27T18:54:03.606Z,94.20
2019-04-27T18:56:33.453Z,94.80
2019-04-27T18:59:02.421Z,94.90
2019-04-27T19:01:30.874Z,94.60
2019-04-27T19:03:59.298Z,94.50
2019-04-27T19:06:28.998Z,94.30
2019-04-27T19:08:59.130Z,94.50
2019-04-27T19:11:29.105Z,94.30
2019-04-27T19:13:59.036Z,94.20
2019-04-27T19:16:29.241Z,94.20
2019-04-27T19:18:58.452Z,94.80
2019-04-27T19:21:28.861Z,94.80
2019-04-27T19:23:58.446Z,95.00
2019-04-27T19:26:28.958Z,94.90
2019-04-27T19:29:02.023Z,95.40
2019-04-27T19:31:32.090Z,95.20
2019-04-27T19:34:00.530Z,95.50
2019-04-27T19:36:30.391Z,95.40
2019-04-27T19:38:58.963Z,95.50
2019-04-27T19:41:28.871Z,95.50
2019-04-27T19:43:57.557Z,95.50
2019-04-27T19:46:26.025Z,95.30
2019-04-27T19:48:54.544Z,95.10
2019-04-27T19:51:22.963Z,94.90
2019-04-27T19:53:51.419Z,94.80
2019-04-27T19:56:21.388Z,95.20
2019-04-27T19:58:51.617Z,95.20
2019-04-27T20:01:38.307Z,95.20
2019-04-27T20:04:17.302Z,95.10
2019-04-27T20:06:45.925Z,95.10
2019-04-27T20:09:16.055Z,95.10
2019-04-27T20:11:44.484Z,95.00
2019-04-27T20:14:12.948Z,95.20
2019-04-27T20:16:41.765Z,95.60
2019-04-27T20:19:11.572Z,95.30
2019-04-27T20:21:40.824Z,95.60
2019-04-27T20:24:09.411Z,95.90
2019-04-27T20:26:37.844Z,95.80
2019-04-27T20:29:06.298Z,95.70
2019-04-27T20:31:34.718Z,95.90
2019-04-27T20:34:03.167Z,96.00
2019-04-27T20:36:31.622Z,95.90
2019-04-27T20:39:01.261Z,95.70
2019-04-27T20:41:31.807Z,95.70
2019-04-27T20:44:02.198Z,95.30
2019-04-27T20:46:31.214Z,95.20
2019-04-27T20:49:01.674Z,95.40
2019-04-27T20:51:50.921Z,95.50
2019-04-27T20:54:21.432Z,95.30
2019-04-27T20:56:53.204Z,94.70
2019-04-27T20:59:21.952Z,94.40
2019-04-27T21:01:50.181Z,95.00
2019-04-27T21:04:20.983Z,95.10
2019-04-27T21:07:06.463Z,95.20
2019-04-27T21:09:34.910Z,95.40
2019-04-27T21:12:03.347Z,95.20
2019-04-27T21:14:31.787Z,95.60
2019-04-27T21:17:01.736Z,96.00
2019-04-27T21:19:31.212Z,96.20
2019-04-27T21:22:01.216Z,96.20
2019-04-27T21:24:31.123Z,96.20
2019-04-27T21:26:59.858Z,96.30
2019-04-27T21:29:28.300Z,96.30
2019-04-27T21:31:56.742Z,96.30
2019-04-27T21:34:25.240Z,96.70
2019-04-27T21:36:53.667Z,96.70
2019-04-27T21:39:41.677Z,96.80
2019-04-27T21:42:11.099Z,96.30
2019-04-27T21:44:42.002Z,96.40
2019-04-27T21:47:11.148Z,96.20
2019-04-27T21:49:41.576Z,95.90
2019-04-27T21:52:15.030Z,95.80
2019-04-27T21:54:45.359Z,95.60
2019-04-27T21:57:14.095Z,96.10
2019-04-27T21:59:42.720Z,95.60
2019-04-27T22:02:13.128Z,95.80
2019-04-27T22:04:41.821Z,95.60
2019-04-27T22:07:11.537Z,95.80
2019-04-27T22:09:43.033Z,96.20
2019-04-27T22:12:11.219Z,96.50
2019-04-27T22:14:40.201Z,96.20
2019-04-27T22:17:08.640Z,95.90
2019-04-27T22:19:37.076Z,96.40
2019-04-27T22:22:07.215Z,96.60
2019-04-27T22:24:37.421Z,96.50
2019-04-27T22:27:05.921Z,96.40
2019-04-27T22:29:35.218Z,96.50
2019-04-27T22:32:03.652Z,96.70
2019-04-27T22:34:32.084Z,96.80
2019-04-27T22:37:02.322Z,97.10
2019-04-27T22:39:32.308Z,96.40
2019-04-27T22:42:20.669Z,96.30
2019-04-27T22:44:52.429Z,96.60
2019-04-27T22:47:21.591Z,96.70
2019-04-27T22:49:50.271Z,97.00
2019-04-27T22:52:18.687Z,97.10
2019-04-27T22:54:47.107Z,97.30
2019-04-27T22:57:17.190Z,97.50
2019-04-27T22:59:53.727Z,97.80
2019-04-27T23:02:40.413Z,98.10
2019-04-27T23:05:10.773Z,98.70
2019-04-27T23:07:41.343Z,99.20
2019-04-27T23:10:11.281Z,99.50
2019-04-27T23:12:41.820Z,99.90
2019-04-27T23:15:11.792Z,99.90
2019-04-27T23:17:44.886Z,99.90
2019-04-27T23:20:13.392Z,99.90
2019-04-27T23:22:41.816Z,99.90
2019-04-27T23:25:11.239Z,99.90
2019-04-27T23:27:41.029Z,99.90
2019-04-27T23:30:11.337Z,99.90
2019-04-27T23:32:44.496Z,99.90
2019-04-27T23:35:12.992Z,99.90
2019-04-27T23:37:41.422Z,99.90
2019-04-27T23:40:11.131Z,99.90
2019-04-27T23:42:41.495Z,99.90
2019-04-27T23:45:10.220Z,99.90
2019-04-27T23:47:38.655Z,99.90
2019-04-27T23:50:07.617Z,99.90
2019-04-27T23:52:54.040Z,99.90
2019-04-27T23:55:24.664Z,99.90
2019-04-27T23:57:53.097Z,99.90
